Time;durP1;ratioP1;P1;durP2;ratioP2;P2;SDS_P1;SDS_P2;PMS_P1;PMS_P2;Temp;Humidity;BMP_temperature;BMP_pressure;BME280_temperature;BME280_humidity;BME280_pressure;Samples;Min_cycle;Max_cycle;Signal;HPM_P1;HPM_P2
2022/10/16 00:00:45;;;;;;;1.02;0.50;;;;;;;;;;5080494;28;20185;-86
2022/10/16 00:03:11;;;;;;;0.15;0.15;;;14.20;99.90;;;;;;5076616;28;20028;-86
2022/10/16 00:05:44;;;;;;;0.70;0.30;;;;;;;;;;5077326;28;20063;-86
2022/10/16 00:08:13;;;;;;;0.80;0.43;;;14.50;99.90;;;;;;5084166;28;20017;-85
2022/10/16 00:10:39;;;;;;;0.90;0.40;;;;;;;;;;5070025;28;20277;-84
2022/10/16 00:13:05;;;;;;;0.77;0.28;;;;;;;;;;5075580;28;20388;-85
2022/10/16 00:15:36;;;;;;;0.80;0.22;;;;;;;;;;5076536;28;20114;-85
2022/10/16 00:18:02;;;;;;;1.20;0.40;;;;;;;;;;5066505;28;20017;-85
2022/10/16 00:20:28;;;;;;;0.30;0.20;;;;;;;;;;5070172;28;20034;-84
2022/10/16 00:22:54;;;;;;;0.77;0.38;;;;;;;;;;5080220;28;20092;-85
2022/10/16 00:25:20;;;;;;;1.63;0.68;;;;;;;;;;5063628;28;20497;-84
2022/10/16 00:27:46;;;;;;;0.85;0.35;;;;;;;;;;5073482;28;20037;-85
2022/10/16 00:30:12;;;;;;;0.57;0.30;;;;;;;;;;5073225;28;20024;-85
2022/10/16 00:32:38;;;;;;;0.73;0.22;;;;;;;;;;5082088;28;20496;-84
2022/10/16 00:35:04;;;;;;;3.80;0.55;;;;;;;;;;5070144;28;20019;-85
2022/10/16 00:37:30;;;;;;;0.57;0.30;;;;;;;;;;5084891;28;20032;-85
2022/10/16 00:39:56;;;;;;;0.68;0.40;;;;;;;;;;5068121;28;20031;-84
2022/10/16 00:42:22;;;;;;;1.73;0.43;;;;;;;;;;5075385;28;20028;-86
2022/10/16 00:44:56;;;;;;;0.73;0.52;;;;;;;;;;5068621;28;20036;-85
2022/10/16 00:47:32;;;;;;;0.30;0.20;;;14.10;99.90;;;;;;5069855;28;20024;-86
2022/10/16 00:50:09;;;;;;;1.52;0.40;;;14.20;99.90;;;;;;5068198;28;20536;-85
2022/10/16 00:52:35;;;;;;;1.50;0.40;;;;;;;;;;5063571;28;20606;-86
2022/10/16 00:55:03;;;;;;;0.30;0.22;;;14.30;99.90;;;;;;5067848;28;20059;-85
2022/10/16 00:57:29;;;;;;;1.17;0.43;;;;;;;;;;5070181;28;20062;-85
2022/10/16 00:59:55;;;;;;;3.92;0.52;;;;;;;;;;5083654;28;20032;-85
2022/10/16 01:02:21;;;;;;;2.30;0.50;;;;;;;;;;5063858;28;20138;-85
2022/10/16 01:04:52;;;;;;;1.73;0.50;;;14.10;99.90;;;;;;5079137;28;20131;-85
2022/10/16 01:07:25;;;;;;;3.55;0.88;;;14.50;99.90;;;;;;5067310;28;20064;-85
2022/10/16 01:09:53;;;;;;;1.00;0.30;;;14.70;99.90;;;;;;5065083;28;20051;-84
2022/10/16 01:12:50;;;;;;;2.45;0.63;;;14.30;99.90;;;;;;5067594;28;20024;-84
2022/10/16 01:15:32;;;;;;;0.93;0.43;;;14.20;99.90;;;;;;5065539;28;20025;-84
2022/10/16 01:18:07;;;;;;;7.78;1.08;;;14.80;99.90;;;;;;5072289;28;20392;-85
2022/10/16 01:20:39;;;;;;;1.35;0.40;;;14.20;99.90;;;;;;5062013;28;20048;-85
2022/10/16 01:23:24;;;;;;;5.07;0.73;;;14.20;99.90;;;;;;5062588;28;20361;-84
2022/10/16 01:25:52;;;;;;;1.52;0.45;;;14.40;99.90;;;;;;5081793;28;20021;-85
2022/10/16 01:28:19;;;;;;;0.63;0.40;;;;;;;;;;5077442;28;20035;-85
2022/10/16 01:30:45;;;;;;;1.73;0.75;;;;;;;;;;5066146;28;20024;-85
2022/10/16 01:33:20;;;;;;;1.00;0.40;;;14.40;99.90;;;;;;5069400;28;20104;-85
2022/10/16 01:35:54;;;;;;;0.73;0.40;;;15.10;99.90;;;;;;5061335;28;20395;-85
2022/10/16 01:38:48;;;;;;;3.33;0.40;;;14.30;99.90;;;;;;5077443;28;20100;-85
2022/10/16 01:41:20;;;;;;;0.50;0.28;;;;;;;;;;5086080;28;20068;-86
2022/10/16 01:43:56;;;;;;;0.60;0.30;;;14.40;99.90;;;;;;5066369;28;20028;-85
2022/10/16 01:46:22;;;;;;;0.77;0.30;;;;;;;;;;5076736;28;20032;-86
2022/10/16 01:48:49;;;;;;;3.03;0.70;;;;;;;;;;5081749;28;20126;-85
2022/10/16 01:51:15;;;;;;;1.10;0.57;;;;;;;;;;5060102;28;20031;-85
2022/10/16 01:53:46;;;;;;;0.77;0.40;;;14.30;99.90;;;;;;5087955;28;20040;-85
2022/10/16 01:56:13;;;;;;;0.47;0.10;;;14.20;99.90;;;;;;5068675;28;20043;-84
2022/10/16 01:58:45;;;;;;;0.77;0.35;;;14.40;99.90;;;;;;5078054;28;20393;-85
2022/10/16 02:01:14;;;;;;;1.05;0.50;;;14.60;99.90;;;;;;5068179;28;20424;-85
2022/10/16 02:03:42;;;;;;;0.75;0.30;;;14.20;99.90;;;;;;5066744;28;20029;-85
2022/10/16 02:06:08;;;;;;;0.80;0.32;;;;;;;;;;5072210;28;20032;-85
2022/10/16 02:08:34;;;;;;;0.75;0.30;;;;;;;;;;5069616;28;20039;-85
2022/10/16 02:11:01;;;;;;;0.98;0.75;;;;;;;;;;5076448;28;20029;-86
2022/10/16 02:13:44;;;;;;;0.28;0.20;;;14.50;99.90;;;;;;5075726;28;20032;-85
2022/10/16 02:16:10;;;;;;;;;;;14.30;99.90;;;;;;5080346;28;20095;-85
2022/10/16 02:18:36;;;;;;;0.47;0.25;;;;;;;;;;5084564;28;19939;-85
2022/10/16 02:21:09;;;;;;;0.90;0.30;;;;;;;;;;5068854;28;20025;-86
2022/10/16 02:23:40;;;;;;;1.80;0.30;;;;;;;;;;5074943;28;20101;-85
2022/10/16 02:26:12;;;;;;;1.10;0.68;;;14.20;99.90;;;;;;5074095;28;20028;-85
2022/10/16 02:28:46;;;;;;;0.80;0.32;;;15.40;99.90;;;;;;5072014;28;20476;-84
2022/10/16 02:31:17;;;;;;;2.35;0.55;;;14.20;99.90;;;;;;5072844;28;20020;-85
2022/10/16 02:33:45;;;;;;;0.70;0.50;;;14.20;99.90;;;;;;5078156;28;20094;-85
2022/10/16 02:36:11;;;;;;;0.95;0.32;;;;;;;;;;5067730;28;20032;-84
2022/10/16 02:38:38;;;;;;;1.17;0.40;;;14.30;99.90;;;;;;5090892;28;20025;-85
2022/10/16 02:41:04;;;;;;;0.77;0.30;;;;;;;;;;5077900;28;20028;-85
2022/10/16 02:43:30;;;;;;;0.70;0.50;;;;;;;;;;5084836;28;20037;-86
2022/10/16 02:45:56;;;;;;;1.33;0.30;;;;;;;;;;5068270;28;20033;-86
2022/10/16 02:48:22;;;;;;;1.30;0.55;;;;;;;;;;5088831;28;20440;-85
2022/10/16 02:50:48;;;;;;;1.27;0.52;;;;;;;;;;5073331;28;20058;-86
2022/10/16 02:53:14;;;;;;;0.35;0.30;;;;;;;;;;5080837;28;20029;-85
2022/10/16 02:55:40;;;;;;;1.35;0.50;;;;;;;;;;5086370;28;20035;-85
2022/10/16 02:58:06;;;;;;;4.50;0.32;;;;;;;;;;5082781;28;20110;-86
2022/10/16 03:00:32;;;;;;;0.40;0.40;;;;;;;;;;5074394;28;20024;-85
2022/10/16 03:02:58;;;;;;;0.77;0.50;;;;;;;;;;5076494;28;20480;-85
2022/10/16 03:05:24;;;;;;;0.50;0.30;;;;;;;;;;5084143;28;20461;-85
2022/10/16 03:07:52;;;;;;;0.50;0.25;;;;;;;;;;5075029;28;20024;-85
2022/10/16 03:10:18;;;;;;;0.50;0.22;;;;;;;;;;5078227;28;20044;-85
2022/10/16 03:12:44;;;;;;;1.00;0.52;;;;;;;;;;5075552;28;20029;-84
2022/10/16 03:15:10;;;;;;;0.85;0.40;;;;;;;;;;5072915;28;20123;-84
2022/10/16 03:17:36;;;;;;;0.50;0.30;;;;;;;;;;5069972;28;20021;-85
2022/10/16 03:20:02;;;;;;;0.73;0.38;;;;;;;;;;5076582;28;20015;-85
2022/10/16 03:22:28;;;;;;;0.55;0.28;;;;;;;;;;5087161;28;20028;-85
2022/10/16 03:24:54;;;;;;;0.75;0.40;;;;;;;;;;5073997;28;20043;-85
2022/10/16 03:27:20;;;;;;;1.55;0.55;;;;;;;;;;5070011;28;20032;-86
2022/10/16 03:29:46;;;;;;;0.32;0.22;;;;;;;;;;5074998;28;20024;-86
2022/10/16 03:32:12;;;;;;;0.63;0.45;;;;;;;;;;5083707;28;20033;-85
2022/10/16 03:34:38;;;;;;;0.77;0.40;;;;;;;;;;5073456;28;20025;-85
2022/10/16 03:37:04;;;;;;;0.57;0.30;;;;;;;;;;5074916;28;20020;-85
2022/10/16 03:39:30;;;;;;;3.95;0.60;;;;;;;;;;5078381;28;20056;-86
2022/10/16 03:41:56;;;;;;;0.63;0.20;;;;;;;;;;5076631;28;20025;-86
2022/10/16 03:44:22;;;;;;;4.97;0.40;;;;;;;;;;5089005;28;20040;-85
2022/10/16 03:46:48;;;;;;;0.82;0.30;;;;;;;;;;5088225;28;20098;-86
2022/10/16 03:49:14;;;;;;;0.73;0.30;;;;;;;;;;5071505;28;20029;-85
2022/10/16 03:51:40;;;;;;;0.57;0.40;;;;;;;;;;5073674;28;20075;-85
2022/10/16 03:54:06;;;;;;;0.93;0.40;;;;;;;;;;5085152;28;20052;-85
2022/10/16 03:56:32;;;;;;;0.52;0.25;;;;;;;;;;5075288;28;20030;-85
2022/10/16 03:58:58;;;;;;;0.82;0.43;;;;;;;;;;5091523;28;20031;-85
2022/10/16 04:01:24;;;;;;;1.35;0.40;;;;;;;;;;5063558;28;20029;-85
2022/10/16 04:03:50;;;;;;;3.10;0.45;;;;;;;;;;5083002;28;20032;-86
2022/10/16 04:06:16;;;;;;;3.80;0.55;;;;;;;;;;5094437;28;20189;-85
2022/10/16 04:08:45;;;;;;;0.30;0.20;;;;;;;;;;5094300;28;20468;-86
2022/10/16 04:11:11;;;;;;;1.33;0.40;;;;;;;;;;5094284;28;20032;-86
2022/10/16 04:13:37;;;;;;;1.85;0.93;;;;;;;;;;5094428;28;20150;-86
2022/10/16 04:16:03;;;;;;;0.55;0.30;;;;;;;;;;5087817;28;20395;-85
2022/10/16 04:18:29;;;;;;;1.35;0.30;;;;;;;;;;5112178;27;20042;-86
2022/10/16 04:20:55;;;;;;;0.63;0.32;;;;;;;;;;5097919;27;20032;-86
2022/10/16 04:23:22;;;;;;;0.43;0.28;;;;;;;;;;5107784;27;20510;-85
2022/10/16 04:25:48;;;;;;;0.50;0.25;;;;;;;;;;5111389;27;20031;-85
2022/10/16 04:28:14;;;;;;;0.40;0.20;;;;;;;;;;5106501;27;20050;-85
2022/10/16 04:30:40;;;;;;;0.20;0.20;;;;;;;;;;5091282;27;20024;-85
2022/10/16 04:33:06;;;;;;;1.13;0.30;;;;;;;;;;5113119;27;20016;-85
2022/10/16 04:35:32;;;;;;;1.58;0.45;;;;;;;;;;5112527;27;20023;-85
2022/10/16 04:37:59;;;;;;;0.82;0.45;;;;;;;;;;5111938;27;20028;-85
2022/10/16 04:40:24;;;;;;;4.55;0.60;;;;;;;;;;5106112;27;20020;-85
2022/10/16 04:42:50;;;;;;;0.68;0.40;;;;;;;;;;5128281;27;20031;-86
2022/10/16 04:45:16;;;;;;;0.80;0.40;;;;;;;;;;5111650;27;20024;-85
2022/10/16 04:47:43;;;;;;;1.75;0.47;;;;;;;;;;5116910;27;20019;-85
2022/10/16 04:50:09;;;;;;;1.05;0.43;;;;;;;;;;5104992;27;20153;-85
2022/10/16 04:52:35;;;;;;;1.08;0.57;;;;;;;;;;5113603;27;20200;-85
2022/10/16 04:55:02;;;;;;;0.77;0.38;;;;;;;;;;5095462;28;20031;-86
2022/10/16 04:57:28;;;;;;;0.60;0.40;;;;;;;;;;5123947;27;20070;-86
2022/10/16 04:59:54;;;;;;;0.68;0.30;;;;;;;;;;5102749;28;20053;-85
2022/10/16 05:02:20;;;;;;;0.68;0.35;;;;;;;;;;5111955;27;20040;-85
2022/10/16 05:04:46;;;;;;;1.13;0.60;;;;;;;;;;5117307;27;20020;-86
2022/10/16 05:07:12;;;;;;;0.50;0.30;;;;;;;;;;5114257;27;20030;-86
2022/10/16 05:09:38;;;;;;;5.18;0.65;;;;;;;;;;5106168;28;20032;-86
2022/10/16 05:12:04;;;;;;;0.40;0.20;;;;;;;;;;5116593;27;20031;-86
2022/10/16 05:14:31;;;;;;;0.77;0.40;;;;;;;;;;5111719;27;20028;-86
2022/10/16 05:16:57;;;;;;;0.80;0.40;;;14.20;99.90;;;;;;5114859;27;20394;-85
2022/10/16 05:19:23;;;;;;;0.60;0.20;;;;;;;;;;5098781;28;20035;-85
2022/10/16 05:21:49;;;;;;;0.88;0.50;;;;;;;;;;5109387;28;20350;-85
2022/10/16 05:24:15;;;;;;;1.90;0.30;;;;;;;;;;5108032;28;20039;-85
2022/10/16 05:26:41;;;;;;;1.10;0.30;;;;;;;;;;5107781;28;20479;-85
2022/10/16 05:29:06;;;;;;;2.92;1.00;;;;;;;;;;5120529;28;20474;-85
2022/10/16 05:31:32;;;;;;;0.52;0.30;;;;;;;;;;5109898;28;20028;-85
2022/10/16 05:33:59;;;;;;;2.08;0.82;;;13.90;99.90;;;;;;5105339;28;20096;-85
2022/10/16 05:36:26;;;;;;;2.47;0.50;;;;;;;;;;5091933;28;20024;-85
2022/10/16 05:38:52;;;;;;;0.90;0.43;;;;;;;;;;5124075;27;20090;-86
2022/10/16 05:41:21;;;;;;;1.60;0.57;;;;;;;;;;5098802;28;20028;-85
2022/10/16 05:43:50;;;;;;;0.82;0.40;;;;;;;;;;5109849;27;20016;-87
2022/10/16 05:46:16;;;;;;;2.95;2.00;;;;;;;;;;5109211;27;20019;-86
2022/10/16 05:48:42;;;;;;;9.73;4.53;;;;;;;;;;5106822;27;20078;-85
2022/10/16 05:51:12;;;;;;;14.15;6.70;;;;;;;;;;5126207;27;20030;-86
2022/10/16 05:53:39;;;;;;;11.82;6.13;;;13.90;99.90;;;;;;5116383;27;20111;-85
2022/10/16 05:56:05;;;;;;;11.45;5.22;;;;;;;;;;5118172;27;20564;-85
2022/10/16 05:58:33;;;;;;;4.65;2.55;;;14.00;99.90;;;;;;5116807;27;20040;-85
2022/10/16 06:01:04;;;;;;;3.15;1.63;;;14.00;99.90;;;;;;5104062;27;20072;-86
2022/10/16 06:03:31;;;;;;;5.15;1.10;;;;;;;;;;5121430;27;20032;-85
2022/10/16 06:05:57;;;;;;;1.50;0.77;;;;;;;;;;5131843;27;20033;-86
2022/10/16 06:08:23;;;;;;;4.18;0.77;;;;;;;;;;5111054;27;20023;-86
2022/10/16 06:10:49;;;;;;;3.83;0.85;;;;;;;;;;5112296;28;20024;-86
2022/10/16 06:13:15;;;;;;;2.03;0.70;;;;;;;;;;5130595;27;20039;-85
2022/10/16 06:15:42;;;;;;;1.65;0.50;;;14.40;99.90;;;;;;5126711;27;20047;-85
2022/10/16 06:18:09;;;;;;;1.73;0.57;;;;;;;;;;5107037;27;20027;-85
2022/10/16 06:20:35;;;;;;;0.93;0.70;;;14.40;99.90;;;;;;5110988;27;20035;-86
2022/10/16 06:23:01;;;;;;;1.95;0.60;;;;;;;;;;5112234;28;20097;-84
2022/10/16 06:25:27;;;;;;;1.05;0.40;;;;;;;;;;5122036;27;20471;-84
2022/10/16 06:27:53;;;;;;;1.38;0.63;;;;;;;;;;5120115;27;20149;-84
2022/10/16 06:30:19;;;;;;;1.60;0.77;;;;;;;;;;5115752;27;20024;-85
2022/10/16 06:32:45;;;;;;;2.38;1.23;;;;;;;;;;5112738;27;20099;-84
2022/10/16 06:35:11;;;;;;;9.60;4.85;;;;;;;;;;5111920;27;20031;-84
2022/10/16 06:37:37;;;;;;;19.75;8.18;;;;;;;;;;5115641;27;20023;-86
2022/10/16 06:40:04;;;;;;;28.90;11.60;;;;;;;;;;5113550;27;20027;-86
2022/10/16 06:42:30;;;;;;;19.33;7.10;;;;;;;;;;5113320;27;20030;-85
2022/10/16 06:44:56;;;;;;;9.05;3.53;;;;;;;;;;5117235;27;20030;-85
2022/10/16 06:47:22;;;;;;;5.43;2.20;;;;;;;;;;5118823;27;20031;-85
2022/10/16 06:49:48;;;;;;;10.43;3.63;;;;;;;;;;5108377;27;20985;-85
2022/10/16 06:52:14;;;;;;;6.75;2.65;;;;;;;;;;5117194;27;20032;-84
2022/10/16 06:54:40;;;;;;;9.07;2.65;;;;;;;;;;5119271;27;20092;-85
2022/10/16 06:57:06;;;;;;;3.85;1.95;;;;;;;;;;5115038;27;20057;-84
2022/10/16 06:59:32;;;;;;;2.47;1.20;;;;;;;;;;5111065;27;20476;-85
2022/10/16 07:01:58;;;;;;;3.30;1.42;;;;;;;;;;5097832;28;20532;-86
2022/10/16 07:04:24;;;;;;;1.10;0.80;;;;;;;;;;5106289;27;20024;-84
2022/10/16 07:06:51;;;;;;;3.08;1.52;;;;;;;;;;5103533;27;20027;-87
2022/10/16 07:09:17;;;;;;;2.25;1.25;;;;;;;;;;5115423;27;20024;-86
2022/10/16 07:11:43;;;;;;;2.45;1.08;;;;;;;;;;5115541;27;20031;-87
2022/10/16 07:14:27;;;;;;;2.75;1.17;;;16.20;99.90;;;;;;5112889;27;20415;-87
2022/10/16 07:16:53;;;;;;;6.18;3.25;;;;;;;;;;5094368;28;20483;-86
2022/10/16 07:19:19;;;;;;;5.90;3.50;;;;;;;;;;5108077;28;20028;-89
2022/10/16 07:21:45;;;;;;;3.55;2.03;;;;;;;;;;5118937;27;20372;-86
2022/10/16 07:24:14;;;;;;;4.78;1.67;;;16.40;99.90;;;;;;5104843;27;20402;-86
2022/10/16 07:26:40;;;;;;;2.00;0.90;;;;;;;;;;5094193;28;20055;-86
2022/10/16 07:29:14;;;;;;;2.28;1.10;;;;;;;;;;5111703;27;20028;-85
2022/10/16 07:31:40;;;;;;;2.08;0.70;;;;;;;;;;5108202;28;20049;-85
2022/10/16 07:34:06;;;;;;;1.30;0.90;;;;;;;;;;5109978;27;20035;-85
2022/10/16 07:36:32;;;;;;;0.85;0.52;;;;;;;;;;5107542;27;20106;-85
2022/10/16 07:38:58;;;;;;;1.60;0.70;;;;;;;;;;5110544;27;20027;-85
2022/10/16 07:41:24;;;;;;;1.40;0.57;;;;;;;;;;5119661;27;20023;-87
2022/10/16 07:43:52;;;;;;;7.68;1.08;;;16.60;99.90;;;;;;5118556;27;20020;-86
2022/10/16 07:46:25;;;;;;;0.98;0.65;;;;;;;;;;5113595;27;20035;-86
2022/10/16 07:48:51;;;;;;;1.95;0.75;;;;;;;;;;5102770;27;20031;-86
2022/10/16 07:51:23;;;;;;;1.30;0.68;;;;;;;;;;5109048;27;20122;-87
2022/10/16 07:53:49;;;;;;;0.90;0.60;;;;;;;;;;5113205;27;20095;-86
2022/10/16 07:56:16;;;;;;;1.48;0.80;;;;;;;;;;5103986;28;20023;-87
2022/10/16 07:58:42;;;;;;;1.60;0.90;;;;;;;;;;5114336;27;20499;-87
2022/10/16 08:01:17;;;;;;;1.95;0.75;;;17.10;99.90;;;;;;5095891;28;20619;-87
2022/10/16 08:04:01;;;;;;;2.13;0.90;;;;;;;;;;5116522;27;20058;-87
2022/10/16 08:06:27;;;;;;;2.58;0.68;;;;;;;;;;5120287;27;20073;-86
2022/10/16 08:08:55;;;;;;;1.05;0.60;;;;;;;;;;5116616;27;20035;-87
2022/10/16 08:11:31;;;;;;;;;;;;;;;;;;;;;
2022/10/16 08:13:58;;;;;;;9.18;0.80;;;;;;;;;;5111979;27;20077;-87
2022/10/16 08:16:29;;;;;;;4.43;0.70;;;;;;;;;;5095800;27;20024;-86
2022/10/16 08:18:55;;;;;;;0.98;0.50;;;;;;;;;;5133632;27;20028;-87
2022/10/16 08:21:23;;;;;;;0.70;0.30;;;;;;;;;;5124810;27;20495;-87
2022/10/16 08:23:49;;;;;;;4.55;0.98;;;;;;;;;;5109742;27;20028;-86
2022/10/16 08:26:18;;;;;;;0.52;0.30;;;;;;;;;;5105634;27;20028;-88
2022/10/16 08:28:58;;;;;;;0.93;0.30;;;;;;;;;;5108247;27;20023;-88
2022/10/16 08:31:32;;;;;;;1.80;0.43;;;;;;;;;;5101797;27;20030;-88
2022/10/16 08:34:18;;;;;;;6.93;0.40;;;;;;;;;;5103787;27;20024;-88
2022/10/16 08:36:44;;;;;;;0.98;0.30;;;;;;;;;;5108378;27;20032;-88
2022/10/16 08:39:10;;;;;;;0.73;0.38;;;;;;;;;;5107224;27;20051;-85
2022/10/16 08:42:05;;;;;;;0.80;0.30;;;19.70;99.90;;;;;;5110556;28;20034;-86
2022/10/16 08:44:59;;;;;;;0.85;0.20;;;19.90;99.90;;;;;;5089877;28;20019;-89
2022/10/16 08:47:35;;;;;;;0.93;0.40;;;19.90;99.90;;;;;;5103640;28;20024;-87
2022/10/16 08:50:08;;;;;;;1.38;0.50;;;;;;;;;;5101889;27;20050;-86
2022/10/16 08:52:41;;;;;;;1.38;0.50;;;19.50;99.90;;;;;;5108680;27;20036;-87
2022/10/16 08:55:07;;;;;;;0.17;0.17;;;;;;;;;;5108363;27;20110;-87
2022/10/16 08:57:35;;;;;;;3.00;0.50;;;;;;;;;;5104168;27;20625;-87
2022/10/16 09:00:11;;;;;;;0.82;0.43;;;;;;;;;;5108233;27;20019;-86
2022/10/16 09:02:47;;;;;;;1.13;0.50;;;;;;;;;;5105760;27;20019;-86
2022/10/16 09:05:38;;;;;;;;;;;;;;;;;;;;;
2022/10/16 09:08:10;;;;;;;1.70;0.55;;;;;;;;;;5111238;27;20100;-86
2022/10/16 09:11:00;;;;;;;3.50;0.50;;;19.90;99.90;;;;;;5111678;27;20030;-88
2022/10/16 09:16:18;;;;;;;0.75;0.30;;;;;;;;;;5095125;28;20064;-88
2022/10/16 09:18:44;;;;;;;1.15;0.30;;;;;;;;;;5107249;28;20085;-87
2022/10/16 09:21:37;;;;;;;4.43;0.30;;;;;;;;;;5107238;28;20144;-85
2022/10/16 09:27:18;;;;;;;0.80;0.20;;;;;;;;;;5106652;28;20038;-89
2022/10/16 09:29:44;;;;;;;0.50;0.22;;;;;;;;;;5099126;28;20105;-88
2022/10/16 09:32:17;;;;;;;3.50;0.40;;;20.90;99.90;;;;;;5107764;28;20433;-86
2022/10/16 09:34:48;;;;;;;0.73;0.35;;;20.90;99.90;;;;;;5097690;28;20052;-87
2022/10/16 09:37:17;;;;;;;0.77;0.30;;;20.70;99.90;;;;;;5106636;28;20159;-87
2022/10/16 09:39:47;;;;;;;0.82;0.30;;;20.90;99.90;;;;;;5099668;28;20028;-86
2022/10/16 09:42:20;;;;;;;0.40;0.20;;;20.80;99.90;;;;;;5091237;28;20030;-88
2022/10/16 09:44:53;;;;;;;1.90;0.43;;;;;;;;;;5106893;28;20099;-89
2022/10/16 09:47:25;;;;;;;1.88;0.40;;;21.00;99.90;;;;;;5105820;28;20096;-88
2022/10/16 09:50:18;;;;;;;2.00;0.40;;;21.10;99.90;;;;;;5115023;28;20072;-88
2022/10/16 09:52:44;;;;;;;0.93;0.30;;;;;;;;;;5118659;27;20317;-86
2022/10/16 09:55:15;;;;;;;0.80;0.32;;;21.10;99.90;;;;;;5101416;28;20063;-87
2022/10/16 09:57:53;;;;;;;2.70;0.47;;;;;;;;;;5095053;28;20435;-85
2022/10/16 10:00:20;;;;;;;2.78;0.30;;;;;;;;;;5095522;28;20107;-87
2022/10/16 10:02:47;;;;;;;0.65;0.40;;;;;;;;;;5106259;28;20028;-85
2022/10/16 10:05:23;;;;;;;0.55;0.20;;;;;;;;;;5107547;28;20023;-87
2022/10/16 10:07:57;;;;;;;1.13;0.47;;;;;;;;;;5124378;27;20159;-86
2022/10/16 10:10:27;;;;;;;0.80;0.32;;;;;;;;;;5097122;28;20019;-87
2022/10/16 10:12:54;;;;;;;2.75;1.48;;;;;;;;;;5094364;28;20159;-85
2022/10/16 10:15:21;;;;;;;4.95;1.73;;;;;;;;;;5107922;28;20414;-87
2022/10/16 10:17:50;;;;;;;2.28;0.80;;;;;;;;;;5104390;28;20038;-84
2022/10/16 10:20:35;;;;;;;0.80;0.30;;;21.60;99.90;;;;;;5113174;28;20028;-86
2022/10/16 10:23:18;;;;;;;2.75;1.25;;;21.50;99.90;;;;;;5113533;27;20031;-86
2022/10/16 10:25:44;;;;;;;0.93;0.47;;;;;;;;;;5104433;28;20559;-86
2022/10/16 10:28:13;;;;;;;0.30;0.20;;;21.90;99.90;;;;;;5102743;28;20012;-85
2022/10/16 10:30:39;;;;;;;1.00;0.40;;;;;;;;;;5115443;27;20028;-86
2022/10/16 10:33:05;;;;;;;0.20;0.10;;;;;;;;;;5089391;28;20596;-86
2022/10/16 10:35:43;;;;;;;0.47;0.20;;;17.90;99.90;;;;;;5109620;27;20382;-87
2022/10/16 10:38:16;;;;;;;6.22;0.95;;;;;;;;;;5087439;28;20539;-85
2022/10/16 10:41:20;;;;;;;0.57;0.30;;;21.10;99.90;;;;;;5112181;27;20072;-87
2022/10/16 10:43:46;;;;;;;1.15;0.20;;;;;;;;;;5084978;27;20181;-86
2022/10/16 10:46:23;;;;;;;0.82;0.40;;;21.30;99.90;;;;;;5110162;27;20582;-86
2022/10/16 10:48:49;;;;;;;5.63;0.43;;;;;;;;;;5098754;27;20027;-87
2022/10/16 10:51:44;;;;;;;0.32;0.20;;;21.60;99.90;;;;;;5106242;27;20051;-84
2022/10/16 10:54:10;;;;;;;1.27;0.20;;;;;;;;;;5093767;28;20095;-87
2022/10/16 10:56:52;;;;;;;0.60;0.30;;;21.20;99.90;;;;;;5112133;28;20054;-86
2022/10/16 10:59:52;;;;;;;0.68;0.20;;;21.60;99.90;;;;;;5084153;28;20035;-86
2022/10/16 11:02:37;;;;;;;0.50;0.32;;;21.00;99.90;;;;;;5107150;27;20220;-86
2022/10/16 11:05:15;;;;;;;0.43;0.13;;;;;;;;;;5108944;27;20015;-87
2022/10/16 11:07:48;;;;;;;1.45;0.30;;;;;;;;;;5097796;27;20103;-86
2022/10/16 11:10:17;;;;;;;0.75;0.20;;;;;;;;;;5106744;27;20031;-86
2022/10/16 11:12:46;;;;;;;0.50;0.30;;;21.60;99.90;;;;;;5104016;27;20046;-86
2022/10/16 11:15:30;;;;;;;0.80;0.40;;;22.00;99.90;;;;;;5106731;27;20035;-88
2022/10/16 11:18:05;;;;;;;0.80;0.45;;;;;;;;;;5102320;27;20138;-86
2022/10/16 11:20:42;;;;;;;1.33;0.40;;;21.80;99.90;;;;;;5098580;27;20087;-86
2022/10/16 11:23:21;;;;;;;1.10;0.43;;;22.10;99.90;;;;;;5098254;27;20205;-85
2022/10/16 11:25:47;;;;;;;8.32;0.45;;;;;;;;;;5100769;27;20043;-85
2022/10/16 11:28:31;;;;;;;1.05;0.40;;;22.00;99.90;;;;;;5116682;27;20743;-87
2022/10/16 11:31:34;;;;;;;0.57;0.32;;;22.30;99.90;;;;;;5087852;27;20024;-85
2022/10/16 11:34:15;;;;;;;0.95;0.43;;;21.90;99.90;;;;;;5089756;27;20016;-87
2022/10/16 11:36:41;;;;;;;1.05;0.40;;;;;;;;;;5102734;27;20012;-85
2022/10/16 11:39:23;;;;;;;0.40;0.30;;;21.70;99.90;;;;;;5108944;27;20059;-88
2022/10/16 11:42:07;;;;;;;0.77;0.40;;;21.80;99.90;;;;;;5095623;27;20380;-88
2022/10/16 11:44:59;;;;;;;1.02;0.28;;;22.10;99.90;;;;;;5100318;27;20028;-86
2022/10/16 11:47:43;;;;;;;1.20;0.40;;;22.50;99.90;;;;;;5085890;27;20123;-86
2022/10/16 11:50:22;;;;;;;3.75;1.02;;;21.60;99.90;;;;;;5104555;27;20080;-86
2022/10/16 11:52:56;;;;;;;2.45;1.00;;;22.20;99.90;;;;;;5084667;27;20043;-85
2022/10/16 11:55:38;;;;;;;0.65;0.40;;;22.20;99.90;;;;;;5103061;27;20297;-85
2022/10/16 11:58:12;;;;;;;2.72;0.60;;;21.90;99.90;;;;;;5099030;27;20032;-86
2022/10/16 12:00:44;;;;;;;1.45;0.52;;;22.20;99.90;;;;;;5100740;27;20103;-85
2022/10/16 12:03:30;;;;;;;0.35;0.10;;;21.60;99.90;;;;;;5095175;27;20031;-86
2022/10/16 12:06:14;;;;;;;0.82;0.50;;;22.10;99.90;;;;;;5087556;28;20091;-87
2022/10/16 12:08:41;;;;;;;0.40;0.20;;;;;;;;;;5111438;27;20034;-86
2022/10/16 12:11:20;;;;;;;1.85;0.35;;;21.80;99.90;;;;;;5104516;27;20027;-85
2022/10/16 12:13:48;;;;;;;0.73;0.43;;;;;;;;;;5115863;27;20107;-85
2022/10/16 12:16:14;;;;;;;1.45;0.45;;;;;;;;;;5115108;27;20031;-85
2022/10/16 12:18:41;;;;;;;0.70;0.30;;;21.80;99.90;;;;;;5103016;27;20081;-84
2022/10/16 12:21:08;;;;;;;1.52;0.45;;;;;;;;;;5081833;28;20035;-86
2022/10/16 12:23:46;;;;;;;1.33;0.55;;;21.70;99.90;;;;;;5109014;27;20020;-85
2022/10/16 12:26:12;;;;;;;0.43;0.30;;;;;;;;;;5094425;28;20274;-86
2022/10/16 12:28:40;;;;;;;0.40;0.30;;;;;;;;;;5109786;28;20036;-87
2022/10/16 12:31:08;;;;;;;1.00;0.38;;;;;;;;;;5115409;27;20378;-85
2022/10/16 12:33:36;;;;;;;1.80;0.30;;;21.70;99.90;;;;;;5106259;27;20027;-85
2022/10/16 12:36:05;;;;;;;1.17;0.50;;;22.50;99.90;;;;;;5106235;27;20019;-85
2022/10/16 12:38:45;;;;;;;0.15;0.10;;;25.50;99.90;;;;;;5099183;27;20034;-87
2022/10/16 12:41:12;;;;;;;0.30;0.30;;;;;;;;;;5100793;28;20019;-86
2022/10/16 12:43:38;;;;;;;1.13;0.75;;;;;;;;;;5098723;27;20084;-86
2022/10/16 12:46:34;;;;;;;2.72;0.40;;;22.80;99.90;;;;;;5110976;27;20023;-85
2022/10/16 12:49:12;;;;;;;0.90;0.30;;;;;;;;;;5103458;27;20044;-86
2022/10/16 12:51:39;;;;;;;1.95;0.75;;;21.90;99.90;;;;;;5105457;27;20028;-86
2022/10/16 12:54:17;;;;;;;0.52;0.30;;;21.70;99.90;;;;;;5113061;27;20455;-85
2022/10/16 12:57:03;;;;;;;0.70;0.30;;;22.00;99.90;;;;;;5083456;28;20024;-85
2022/10/16 12:59:44;;;;;;;0.35;0.28;;;;;;;;;;5107135;27;20035;-86
2022/10/16 13:02:37;;;;;;;0.20;0.20;;;22.50;99.90;;;;;;5104416;27;20039;-85
2022/10/16 13:05:32;;;;;;;0.65;0.20;;;21.80;99.90;;;;;;5092004;28;20024;-86
2022/10/16 13:08:36;;;;;;;0.55;0.28;;;21.90;99.90;;;;;;5110944;27;20020;-86
2022/10/16 13:11:20;;;;;;;1.77;0.50;;;22.00;99.90;;;;;;5109130;28;20482;-86
2022/10/16 13:14:07;;;;;;;0.88;0.30;;;22.30;99.90;;;;;;5105230;27;20034;-87
2022/10/16 13:16:33;;;;;;;0.40;0.22;;;;;;;;;;5109150;27;20021;-86
2022/10/16 13:19:20;;;;;;;1.00;0.35;;;22.80;99.90;;;;;;5091391;28;20030;-85
2022/10/16 13:22:14;;;;;;;0.98;0.30;;;22.10;99.90;;;;;;5102534;28;20020;-88
2022/10/16 13:25:08;;;;;;;1.17;0.25;;;21.90;99.90;;;;;;5099309;28;20027;-85
2022/10/16 13:28:07;;;;;;;0.35;0.22;;;22.50;99.90;;;;;;5106730;28;20115;-86
2022/10/16 13:30:43;;;;;;;1.83;0.68;;;22.00;99.90;;;;;;5102219;28;20024;-86
2022/10/16 13:33:35;;;;;;;3.75;2.08;;;22.00;99.90;;;;;;5083757;28;20035;-86
2022/10/16 13:36:02;;;;;;;1.73;0.77;;;22.20;99.90;;;;;;5094399;28;20031;-88
2022/10/16 13:38:31;;;;;;;0.93;0.38;;;22.10;99.90;;;;;;5104406;28;20028;-86
2022/10/16 13:40:57;;;;;;;1.58;0.40;;;;;;;;;;5113630;28;20028;-88
2022/10/16 13:43:45;;;;;;;2.80;0.65;;;22.60;99.90;;;;;;5104982;28;20031;-87
2022/10/16 13:46:14;;;;;;;1.13;0.50;;;;;;;;;;5097687;28;20047;-85
2022/10/16 13:48:41;;;;;;;1.80;1.20;;;;;;;;;;5118269;28;20055;-86
2022/10/16 13:51:13;;;;;;;1.83;0.77;;;;;;;;;;5107616;28;20023;-87
2022/10/16 13:53:40;;;;;;;1.02;0.40;;;;;;;;;;5112481;27;20063;-86
2022/10/16 13:56:11;;;;;;;0.82;0.30;;;21.80;99.90;;;;;;5096823;28;20082;-88
2022/10/16 13:58:40;;;;;;;0.20;0.20;;;;;;;;;;5120776;27;20024;-91
2022/10/16 14:01:24;;;;;;;0.60;0.20;;;22.70;99.90;;;;;;5114309;27;20038;-88
2022/10/16 14:03:51;;;;;;;0.52;0.45;;;;;;;;;;5096100;28;20190;-87
2022/10/16 14:06:19;;;;;;;1.20;0.30;;;;;;;;;;5115257;27;20115;-87
2022/10/16 14:08:46;;;;;;;1.30;0.25;;;;;;;;;;5109674;27;20619;-87
2022/10/16 14:11:13;;;;;;;0.32;0.20;;;;;;;;;;5121723;27;20019;-86
2022/10/16 14:13:40;;;;;;;0.40;0.30;;;;;;;;;;5117171;27;20059;-88
2022/10/16 14:16:10;;;;;;;0.85;0.43;;;21.60;99.90;;;;;;5119106;27;20035;-86
2022/10/16 14:18:39;;;;;;;0.90;0.40;;;21.40;99.90;;;;;;5104948;27;20012;-86
2022/10/16 14:21:07;;;;;;;1.75;0.50;;;21.50;99.90;;;;;;5111122;27;20016;-86
2022/10/16 14:23:38;;;;;;;2.10;0.43;;;21.50;99.90;;;;;;5106144;27;20076;-87
2022/10/16 14:26:07;;;;;;;0.57;0.30;;;;;;;;;;5109451;27;20079;-88
2022/10/16 14:28:33;;;;;;;0.30;0.20;;;;;;;;;;5102893;27;20471;-87
2022/10/16 14:31:00;;;;;;;2.08;0.57;;;;;;;;;;5092915;28;20055;-86